Tiempo atmosférico en la estación meteorológica de Castuera , Badajoz (512 m.)



Fecha
DESCASC
Temp. máxima en grados centígrados (hora)
DESCASC
Temp. mínima en grados centígrados (hora)
DESCASC
Temp. media en grados centígrados
DESCASC
Racha de viento máxima en m/sg (hora)
DESCASC
Velocidad máxima media en intervalos de 10 minutos(hora)
DESCASC
Precipitaciones diarias en mm
DESCASC
Precipitaciones de 00:00 a 06:00 en mm
DESCASC
Precipitaciones de 06:00 a 12:00 en mm
DESCASC
Precipitaciones de 12:00 a 18:00 en mm
DESCASC
Precipitaciones de 18:00 a 24:00 en mm
DESCASC
20-09-2020 25.2 (18:10) 15.3 (06:20) 20.3 8.61 (15:50) 5.28 (16:10) 0 0 0 0 0
19-09-2020 25.4 (15:20) 15.2 (07:10) 20.3 11.11 (00:20) 7.78 (00:20) 1 0.8 0.2 0 0
18-09-2020 21.9 (12:40) 16.8 (07:50) 19.3 17.78 (03:10) 11.39 (20:40) 12.2 1.2 0 11 0
17-09-2020 28.8 (15:20) 19.5 (00:00) 24.1 15.56 (16:20) 11.39 (16:20) 0 0 0 0 0
16-09-2020 32.9 (16:00) 18.1 (00:00) 25.5 9.44 (14:00) 7.22 (18:00) 0 0 0 0 0
15-09-2020 32 (17:50) 18.7 (00:00) 25.4 9.72 (14:50) 5.56 (01:50) 0 0 0 0 0
14-09-2020 34.1 (16:40) 22.6 (00:00) 28.3 13.61 (00:40) 8.61 (01:20) 0 0 0 0 0
13-09-2020 36.7 (15:50) 24 (00:00) 30.4 10.83 (04:30) 7.5 (04:30) 0 0 0 0 0
12-09-2020 36.5 (16:50) 23.4 (00:00) 29.9 7.78 (14:40) 5.83 (07:20) 0 0 0 0 0
11-09-2020 34.7 (14:50) 21.9 (00:00) 28.3 7.5 (10:40) 5.28 (10:40) 0 0 0 0 0
10-09-2020 32.9 (15:50) 20.4 (00:00) 26.7 7.5 (18:30) 3.89 (18:30) 0 0 0 0 0
09-09-2020 30.5 (18:10) 19 (00:00) 24.8 8.33 (06:40) 5.28 (06:50) 0 0 0 0 0
08-09-2020 29.8 (18:30) 17.5 (00:00) 23.6 9.44 (00:10) 5.28 (01:20) 0 0 0 0 0
07-09-2020 34.2 (16:10) 22.3 (08:40) 28.3 11.11 (23:00) 6.94 (23:00) 0 0 0 0 0
06-09-2020 35.8 (16:00) 21.8 (00:00) 28.8 9.72 (08:10) 6.94 (08:00) 0 0 0 0 0
05-09-2020 34.9 (15:40) 21.7 (00:00) 28.3 9.44 (07:20) 7.22 (07:00) 0 0 0 0 0
04-09-2020 35.4 (17:10) 19.8 (00:00) 27.6 9.44 (16:10) 5.83 (03:50) 0 0 0 0 0
03-09-2020 34.3 (14:40) 20.8 (00:00) 27.5 9.17 (06:00) 6.94 (06:00) 0 0 0 0 0
02-09-2020 33.4 (17:30) 16.9 (00:00) 25.2 -- (--) -- (--) 0 0 0 0 0
01-09-2020 31.5 (17:50) 19.1 (00:00) 25.3 7.5 (17:40) 4.72 (08:40) 0 0 0 0 0
31-08-2020 31.4 (16:00) 16.2 (00:00) 23.8 11.11 (13:30) 4.17 (12:10) 0 0 0 0 0
30-08-2020 27.4 (17:40) 16.4 (00:00) 21.9 7.5 (15:20) 3.61 (06:50) 0 0 0 0 0
29-08-2020 26.5 (18:30) 13.1 (00:00) 19.8 11.67 (15:40) 5.83 (16:10) 0 0 0 0 0
28-08-2020 31.1 (16:40) 18.1 (00:00) 24.6 12.22 (17:30) 7.78 (19:40) 0 0 0 0 0
27-08-2020 36.9 (18:00) 23.8 (00:00) 30.4 9.72 (17:30) 5.83 (18:30) 0 0 0 0 0
26-08-2020 38.2 (17:10) 24.3 (00:00) 31.3 8.89 (14:50) 5.28 (19:40) 0 0 0 0 0
25-08-2020 38 (16:50) 24 (00:00) 31 8.33 (17:40) 4.17 (17:40) 0 0 0 0 0
24-08-2020 36.8 (15:40) 20.3 (00:00) 28.5 8.61 (17:30) 3.61 (17:30) 0 0 0 0 0

Gráficas

Temp. máximas Temp. mínimas Temp. medias Precipitaciones Rachas de viento máximas Velocidades máximas media en intervalos de 10 minutos

Datos horarios

Fecha y hora oficial Temperatura (ºC) Velocidad del viento (km/h) Dirección del viento Racha (km/h) Dirección de racha Precipitación (mm) Presión (hPa) Tendencia (hPa) Humedad (%)
2020-09-22 23:00:00 21.6 4 Oeste 13 Oeste 0 -- -- 58
2020-09-22 22:00:00 22.2 8 Noroeste 16 Noroeste 0 -- -- 56
2020-09-22 21:00:00 23.1 11 Noroeste 19 Noroeste 0 -- -- 53
2020-09-22 20:00:00 24.3 11 Noroeste 18 Norte 0 -- -- 46
2020-09-22 19:00:00 25.5 11 Noroeste 23 Oeste 0 -- -- 42
2020-09-22 18:00:00 26.1 14 Oeste 25 Oeste 0 -- -- 41
2020-09-22 17:00:00 26.4 12 Oeste 26 Oeste 0 -- -- 41
2020-09-22 16:00:00 25.8 13 Noroeste 21 Oeste 0 -- -- 43
2020-09-22 15:00:00 25.1 6 Norte 17 Oeste 0 -- -- 47
2020-09-22 14:00:00 24.9 7 Sudoeste 19 Oeste 0 -- -- 48
2020-09-22 13:00:00 22.5 6 Noroeste 17 Oeste 0 -- -- 53
2020-09-22 12:00:00 21.2 7 Noroeste 16 Oeste 0 -- -- 57
2020-09-22 11:00:00 20 5 Oeste 9 Oeste 0 -- -- 62
2020-09-22 10:00:00 17.9 5 Sur 9 Sur 0 -- -- 71
2020-09-22 09:00:00 15.8 6 Sur 9 Sur 0 -- -- 78
2020-09-22 08:00:00 15.6 2 Sur 6 Sur 0 -- -- 78
2020-09-22 07:00:00 15.9 3 Sur 5 Sur 0 -- -- 76
2020-09-22 06:00:00 16.3 0 Calma 4 Sudeste 0 -- -- 74
2020-09-22 05:00:00 16.5 3 Sur 5 Sudoeste 0 -- -- 73
2020-09-22 04:00:00 16.9 3 Sur 6 Sudeste 0 -- -- 68
2020-09-22 03:00:00 17.5 2 Sur 9 Norte 0 -- -- 64
2020-09-22 02:00:00 18 0 Calma 12 Noroeste 0 -- -- 60
2020-09-22 01:00:00 19 2 Oeste 9 Oeste 0 -- -- 53
2020-09-22 00:00:00 19.8 2 Noroeste 5 Noroeste 0 -- -- 50
2020-09-21 23:00:00 20.2 0 Calma 5 Oeste 0 -- -- 49
2020-09-21 22:00:00 20.7 0 Calma 8 Oeste 0 -- -- 48
2020-09-21 21:00:00 21.7 0 Calma 16 Noroeste 0 -- -- 45
2020-09-21 20:00:00 23.3 10 Noroeste 23 Noroeste 0 -- -- 40
2020-09-21 19:00:00 24.7 13 Noroeste 27 Noroeste 0 -- -- 35
2020-09-21 18:00:00 25.8 13 Noroeste 26 Noroeste 0 -- -- 34
2020-09-21 17:00:00 26 12 Oeste 27 Oeste 0 -- -- 33
2020-09-21 16:00:00 26.3 11 Sudoeste 25 Noroeste 0 -- -- 32
2020-09-21 15:00:00 24.6 12 Noroeste 21 Oeste 0 -- -- 42
2020-09-21 14:00:00 23.8 10 Noroeste 24 Oeste 0 -- -- 46
2020-09-21 13:00:00 22.4 7 Oeste 18 Noroeste 0 -- -- 51
2020-09-21 12:00:00 20.7 8 Oeste 15 Oeste 0 -- -- 58
2020-09-21 11:00:00 18.7 4 Oeste 12 Sur 0 -- -- 72
2020-09-21 10:00:00 17.2 4 Sudoeste 9 Sudoeste 0 -- -- 78
2020-09-21 09:00:00 16 2 Sudoeste 5 Sudoeste 0 -- -- 78
2020-09-21 08:00:00 16 3 Sur 6 Sur 0 -- -- 78
2020-09-21 07:00:00 15.8 4 Sur 7 Sudeste 0 -- -- 79
2020-09-21 06:00:00 16.1 2 Sur 4 Sur 0 -- -- 77
2020-09-21 05:00:00 16.3 0 Calma 3 Sur 0 -- -- 75
2020-09-21 04:00:00 16.8 0 Calma 3 Norte 0 -- -- 73
2020-09-21 03:00:00 17.5 0 Calma 4 Nordeste 0 -- -- 70
2020-09-21 02:00:00 18.1 2 Nordeste 4 Norte 0 -- -- 67
2020-09-21 01:00:00 18.4 0 Calma 6 Norte 0 -- -- 67
2020-09-21 00:00:00 19 0 Calma 4 Oeste 0 -- -- 65
2020-09-20 23:00:00 19.8 0 Calma 6 Oeste 0 -- -- 62
2020-09-20 22:00:00 20.4 3 Norte 10 Norte 0 -- -- 61
2020-09-20 21:00:00 21.3 8 Noroeste 21 Noroeste 0 -- -- 58
2020-09-20 20:00:00 23 12 Noroeste 23 Noroeste 0 -- -- 53
2020-09-20 19:00:00 24.4 13 Noroeste 24 Oeste 0 -- -- 49
2020-09-20 18:00:00 25 16 Oeste 24 Norte 0 -- -- 46
2020-09-20 17:00:00 24.4 13 Noroeste 30 Oeste 0 -- -- 46
2020-09-20 16:00:00 23.8 17 Noroeste 31 Oeste 0 -- -- 51
2020-09-20 15:00:00 23.6 14 Oeste 22 Oeste 0 -- -- 55
2020-09-20 14:00:00 21.3 8 Noroeste 18 Noroeste 0 -- -- 63
2020-09-20 13:00:00 21.3 8 Oeste 18 Sudoeste 0 -- -- 61
2020-09-20 12:00:00 21.1 12 Sudoeste 24 Oeste 0 -- -- 65
2020-09-20 11:00:00 19.7 11 Sudoeste 17 Sudoeste 0 -- -- 71
2020-09-20 10:00:00 18 9 Sur 15 Sur 0 -- -- 78
2020-09-20 09:00:00 16 9 Sudeste 13 Sudeste 0 -- -- 86
2020-09-20 08:00:00 15.6 8 Sur 13 Sur 0 -- -- 88
2020-09-20 07:00:00 15.3 6 Sudeste 10 Sur 0 -- -- 89
2020-09-20 06:00:00 15.5 7 Sur 10 Sur 0 -- -- 87
2020-09-20 05:00:00 15.9 0 Calma 9 Oeste 0 -- -- 85
2020-09-20 04:00:00 16.4 6 Oeste 17 Sudoeste 0 -- -- 82
2020-09-20 03:00:00 16.4 5 Sur 13 Sudoeste 0 -- -- 82
2020-09-20 02:00:00 17.1 6 Oeste 13 Oeste 0 -- -- 79
2020-09-20 01:00:00 18 4 Sudoeste 10 Sudoeste 0 -- -- 73
2020-09-20 00:00:00 18.9 4 Sudoeste 14 Oeste 0 -- -- 68
2020-09-19 23:00:00 19.8 4 Sudoeste 11 Sudoeste 0 -- -- 63
2020-09-19 22:00:00 20 5 Sur 7 Sur 0 -- -- 60
2020-09-19 21:00:00 20.7 4 Oeste 13 Oeste 0 -- -- 57
2020-09-19 20:00:00 21.9 13 Oeste 22 Noroeste 0 -- -- 52
2020-09-19 19:00:00 22.3 15 Oeste 29 Oeste 0 -- -- 52
2020-09-19 18:00:00 23.2 15 Noroeste 28 Oeste 0 -- -- 47
2020-09-19 17:00:00 23.5 17 Oeste 35 Noroeste 0 -- -- 49
2020-09-19 16:00:00 23.1 14 Oeste 33 Oeste 0 -- -- 50
2020-09-19 15:00:00 23.2 18 Sudoeste 27 Oeste 0 -- -- 54
2020-09-19 14:00:00 21.2 15 Oeste 25 Oeste 0 -- -- 62
2020-09-19 13:00:00 20.5 14 Oeste 30 Sudoeste 0 -- -- 61
2020-09-19 12:00:00 19.4 21 Oeste 33 Sudoeste 0 -- -- 67
2020-09-19 11:00:00 18.6 21 Sudoeste 29 Sudoeste 0 -- -- 74
2020-09-19 10:00:00 16.7 17 Sudoeste 25 Sudoeste 0 -- -- 85
2020-09-19 09:00:00 15.6 10 Sudoeste 26 Sudoeste 0 -- -- 90
2020-09-19 08:00:00 15.4 21 Sudoeste 28 Sur 0.2 -- -- 90
2020-09-19 07:00:00 15.3 20 Sudoeste 29 Sudoeste 0 -- -- 92
2020-09-19 06:00:00 15.5 17 Sudoeste 25 Sudoeste 0 -- -- 90
2020-09-19 05:00:00 15.6 15 Sur 21 Sur 0.2 -- -- 91
2020-09-19 04:00:00 15.8 16 Sudoeste 33 Sudoeste 0.6 -- -- 93
2020-09-19 03:00:00 17.1 19 Sur 35 Sur 0 -- -- 80
2020-09-19 02:00:00 17.3 23 Sur 35 Sudoeste 0 -- -- 81
2020-09-19 01:00:00 17.3 24 Sur 40 Sur 0 -- -- 80
2020-09-19 00:00:00 17.7 24 Sudoeste 42 Sur 0 -- -- 79
2020-09-18 23:00:00 17.7 35 Sudoeste 57 Sur 0 -- -- 77
2020-09-18 22:00:00 18.1 34 Sur 57 Sur 0 -- -- 76
2020-09-18 21:00:00 18.4 39 Sur 57 Sur 0 -- -- 74
2020-09-18 20:00:00 19.3 34 Sur 51 Sur 0 -- -- 73
2020-09-18 19:00:00 19.7 33 Sur 47 Sudoeste 0 -- -- 72
2020-09-18 18:00:00 18.1 32 Sur 54 Sur 0.4 -- -- 82
2020-09-18 17:00:00 20.3 36 Sur 57 Sur 0 -- -- 71
2020-09-18 16:00:00 19.1 27 Sur 34 Sur 0.4 -- -- 83
2020-09-18 15:00:00 17.1 23 Sur 48 Sudoeste 9.8 -- -- 92
2020-09-18 14:00:00 19.2 18 Sudoeste 49 Sudoeste 0.4 -- -- 82
2020-09-18 13:00:00 21.5 27 Sur 42 Sur 0 -- -- 64
2020-09-18 12:00:00 20.8 17 Sur 32 Sur 0 -- -- 68
2020-09-18 11:00:00 20 14 Sur 32 Sudoeste 0 -- -- 72
2020-09-18 10:00:00 18.3 17 Sur 27 Sur 0 -- -- 79
2020-09-18 09:00:00 16.9 12 Sur 21 Sur 0 -- -- 83
2020-09-18 08:00:00 16.8 4 Sur 21 Sur 0 -- -- 86
2020-09-18 07:00:00 17.4 8 Sudoeste 30 Sudoeste 0 -- -- 90
2020-09-18 06:00:00 17.4 18 Sur 34 Sudoeste 1.2 -- -- 90
2020-09-18 05:00:00 19.8 27 Sur 39 Sur 0 -- -- 71
2020-09-18 04:00:00 19.9 27 Sur 64 Sur 0 -- -- 71
2020-09-18 03:00:00 20.1 39 Sur 60 Sur 0 -- -- 72
2020-09-18 02:00:00 20.5 26 Sur 49 Sudoeste 0 -- -- 72
2020-09-18 01:00:00 20.8 27 Sur 42 Sur 0 -- -- 71
2020-09-18 00:00:00 21.4 27 Sur 43 Sur 0 -- -- 70
2020-09-17 23:00:00 22 23 Sur 40 Sur 0 -- -- 66
2020-09-17 22:00:00 23.2 28 Sur 45 Sur 0 -- -- 60
2020-09-17 21:00:00 24.1 37 Sur 52 Sur 0 -- -- 55
2020-09-17 20:00:00 25.3 29 Sur 49 Sur 0 -- -- 51
2020-09-17 19:00:00 25 17 Sudeste 49 Sudoeste 0 -- -- 54
2020-09-17 18:00:00 26.9 36 Sur 53 Sur 0 -- -- 45
2020-09-17 17:00:00 27.5 35 Sur 56 Sudoeste 0 -- -- 44
2020-09-17 16:00:00 27.6 33 Sur 50 Sur 0 -- -- 46
2020-09-17 15:00:00 27.7 34 Sur 49 Sudoeste 0 -- -- 46
2020-09-17 14:00:00 26.2 30 Sur 47 Sur 0 -- -- 50
2020-09-17 13:00:00 23.1 21 Sur 37 Sur 0 -- -- 62
2020-09-17 12:00:00 21.5 15 Sudeste 29 Sudeste 0 -- -- 71
2020-09-17 11:00:00 21.6 18 Sudeste 33 Sudeste 0 -- -- 68
2020-09-17 10:00:00 20.6 13 Sudeste 22 Sudeste 0 -- -- 71
2020-09-17 09:00:00 20.5 15 Sudeste 24 Sudeste 0 -- -- 72
2020-09-17 08:00:00 19.7 16 Sur 25 Sur 0 -- -- 75
2020-09-17 07:00:00 20 8 Sudeste 22 Sudeste 0 -- -- 72
2020-09-17 06:00:00 20.4 14 Sudeste 26 Este 0 -- -- 67
2020-09-17 05:00:00 21.5 13 Sudeste 23 Sudeste 0 -- -- 60
2020-09-17 04:00:00 22.6 12 Sudeste 18 Sudeste 0 -- -- 55
2020-09-17 03:00:00 22.7 9 Sudeste 21 Sudeste 0 -- -- 55
2020-09-17 02:00:00 23.5 13 Sur 27 Sur 0 -- -- 52
2020-09-17 01:00:00 23.8 14 Sur 28 Sur 0 -- -- 50
2020-09-17 00:00:00 24.1 17 Sur 24 Sur 0 -- -- 43
2020-09-16 23:00:00 24.6 19 Sudoeste 25 Sudoeste 0 -- -- 40
2020-09-16 22:00:00 25.3 14 Sur 21 Sudoeste 0 -- -- 36
2020-09-16 21:00:00 26 15 Sur 23 Sudoeste 0 -- -- 37
2020-09-16 20:00:00 27 18 Sudoeste 25 Sudoeste 0 -- -- 37
2020-09-16 19:00:00 28.2 22 Sudoeste 33 Sur 0 -- -- 34
2020-09-16 18:00:00 29.6 26 Sudoeste 33 Sudoeste 0 -- -- 29
2020-09-16 17:00:00 31.2 18 Sudoeste 29 Sudoeste 0 -- -- 29
2020-09-16 16:00:00 32.9 15 Sudoeste 28 Sur 0 -- -- 28
2020-09-16 15:00:00 30.9 4 Sur 23 Sudoeste 0 -- -- 32
2020-09-16 14:00:00 30.9 17 Sur 34 Sur 0 -- -- 33
2020-09-16 13:00:00 29.9 13 Sudeste 24 Sudeste 0 -- -- 36
2020-09-16 12:00:00 28.5 12 Sudeste 20 Sudeste 0 -- -- 40
2020-09-16 11:00:00 25.5 8 Sur 14 Sur 0 -- -- 44
2020-09-16 10:00:00 22.2 3 Sudoeste 13 Sudeste 0 -- -- 50
2020-09-16 09:00:00 18.6 5 Sur 9 Sudeste 0 -- -- 61
2020-09-16 08:00:00 18.1 5 Sur 6 Sur 0 -- -- 63
2020-09-16 07:00:00 18.3 5 Sudeste 8 Sudeste 0 -- -- 61
2020-09-16 06:00:00 19 4 Sudeste 8 Sudoeste 0 -- -- 58
2020-09-16 05:00:00 19.6 3 Sur 19 Noroeste 0 -- -- 54
2020-09-16 04:00:00 22 0 Calma 5 Sudeste 0 -- -- 45
2020-09-16 03:00:00 21.8 4 Sudeste 6 Sudeste 0 -- -- 50
2020-09-16 02:00:00 22.1 3 Sudeste 5 Sur 0 -- -- 52
2020-09-16 01:00:00 22.7 3 Sur 6 Sur 0 -- -- 53
2020-09-16 00:00:00 23.8 0 Calma 8 Nordeste 0 -- -- 50
2020-09-15 23:00:00 25 6 Nordeste 11 Nordeste 0 -- -- 46
2020-09-15 22:00:00 25.3 7 Nordeste 15 Nordeste 0 -- -- 48
2020-09-15 21:00:00 26.3 9 Norte 19 Norte 0 -- -- 46
2020-09-15 20:00:00 27.7 10 Norte 18 Noroeste 0 -- -- 43
2020-09-15 19:00:00 29.8 10 Oeste 22 Oeste 0 -- -- 34
2020-09-15 18:00:00 31.7 15 Oeste 26 Oeste 0 -- -- 32
2020-09-15 17:00:00 31.2 10 Sur 24 Sudoeste 0 -- -- 33
2020-09-15 16:00:00 30.9 12 Sur 26 Oeste 0 -- -- 32
2020-09-15 15:00:00 30.3 10 Sudoeste 35 Oeste 0 -- -- 35
2020-09-15 14:00:00 28.9 14 Sudoeste 30 Sudoeste 0 -- -- 41
2020-09-15 13:00:00 27.9 13 Sudoeste 22 Sur 0 -- -- 45
2020-09-15 12:00:00 25.8 9 Sudeste 18 Sudeste 0 -- -- 51
2020-09-15 11:00:00 23.4 4 Sur 13 Sur 0 -- -- 57
2020-09-15 10:00:00 21.7 2 Sudoeste 9 Sudeste 0 -- -- 64
2020-09-15 09:00:00 19 3 Sudeste 5 Sur 0 -- -- 74
2020-09-15 08:00:00 18.9 4 Sur 5 Sudoeste 0 -- -- 71
2020-09-15 07:00:00 19.6 3 Sur 8 Sudoeste 0 -- -- 66
2020-09-15 06:00:00 20.2 3 Oeste 9 Sudoeste 0 -- -- 70
2020-09-15 05:00:00 20.2 8 Oeste 14 Sudoeste 0 -- -- 73
2020-09-15 04:00:00 21.1 9 Sudoeste 14 Sudoeste 0 -- -- 71
2020-09-15 03:00:00 22.2 9 Sudoeste 25 Sudoeste 0 -- -- 65
2020-09-15 02:00:00 23.4 19 Sudoeste 28 Sudoeste 0 -- -- 64
2020-09-15 01:00:00 24.4 17 Sudoeste 24 Sudoeste 0 -- -- 62
2020-09-15 00:00:00 24.7 12 Sur 18 Sur 0 -- -- 56
2020-09-14 23:00:00 24.7 6 Sur 9 Sur 0 -- -- 53
2020-09-14 22:00:00 24.8 2 Oeste 18 Norte 0 -- -- 54
2020-09-14 21:00:00 26.5 14 Noroeste 34 Sudoeste 0 -- -- 49
2020-09-14 20:00:00 29.8 22 Sudoeste 33 Sudoeste 0 -- -- 35
2020-09-14 19:00:00 32.2 26 Sudoeste 38 Sur 0 -- -- 30
2020-09-14 18:00:00 32.6 18 Sudoeste 40 Sur 0 -- -- 30
2020-09-14 17:00:00 32.7 17 Sur 34 Sur 0 -- -- 30
2020-09-14 16:00:00 33.3 20 Sur 32 Sur 0 -- -- 29
2020-09-14 15:00:00 32.2 19 Sur 41 Sur 0 -- -- 30
2020-09-14 14:00:00 30.7 28 Sur 46 Sur 0 -- -- 31
2020-09-14 13:00:00 30.7 22 Sudoeste 31 Sudoeste 0 -- -- 31
2020-09-14 12:00:00 28.6 15 Sur 23 Sudeste 0 -- -- 37
2020-09-14 11:00:00 25.8 13 Sudeste 22 Sudeste 0 -- -- 43
2020-09-14 10:00:00 24.5 10 Sudeste 24 Sudeste 0 -- -- 47
2020-09-14 09:00:00 23 14 Sudeste 23 Sudeste 0 -- -- 50
2020-09-14 08:00:00 22.6 12 Sudeste 20 Sudeste 0 -- -- 50
2020-09-14 07:00:00 22.9 10 Este 18 Este 0 -- -- 48
2020-09-14 06:00:00 23.2 10 Sudeste 19 Sudeste 0 -- -- 46
2020-09-14 05:00:00 24 11 Sur 22 Sudeste 0 -- -- 42
2020-09-14 04:00:00 23.7 9 Sur 41 Sur 0 -- -- 43
2020-09-14 03:00:00 25.3 26 Sur 40 Sur 0 -- -- 40
2020-09-14 02:00:00 25.8 23 Sur 46 Sur 0 -- -- 39
2020-09-14 01:00:00 26.4 24 Sur 49 Sudeste 0 -- -- 35
2020-09-14 00:00:00 26.5 21 Sur 39 Sudeste 0 -- -- 32
2020-09-13 23:00:00 27.7 21 Sudeste 33 Sur 0 -- -- 30
2020-09-13 22:00:00 28.6 14 Sudeste 24 Sudeste 0 -- -- 30
2020-09-13 21:00:00 29.7 11 Sur 26 Sur 0 -- -- 27
2020-09-13 20:00:00 32 19 Sur 31 Sur 0 -- -- 25
2020-09-13 19:00:00 32.9 20 Sur 31 Sudoeste 0 -- -- 23
2020-09-13 18:00:00 35.2 19 Sur 31 Sur 0 -- -- 20
2020-09-13 17:00:00 35.6 12 Sudeste 34 Sudeste 0 -- -- 19
2020-09-13 16:00:00 36.7 14 Sur 30 Sudeste 0 -- -- 18
2020-09-13 15:00:00 34.4 14 Sudeste 28 Sudeste 0 -- -- 20
2020-09-13 14:00:00 32.6 12 Sur 27 Sudeste 0 -- -- 24
2020-09-13 13:00:00 31.7 19 Sudeste 28 Sudeste 0 -- -- 25
2020-09-13 12:00:00 29.3 17 Sudeste 27 Sudeste 0 -- -- 29
2020-09-13 11:00:00 27.6 15 Sudeste 27 Sudeste 0 -- -- 31
2020-09-13 10:00:00 26.1 15 Sudeste 26 Este 0 -- -- 33
2020-09-13 09:00:00 24.9 8 Sudeste 24 Sudeste 0 -- -- 36
2020-09-13 08:00:00 24 14 Sudeste 33 Sudeste 0 -- -- 38
2020-09-13 07:00:00 24.2 22 Sudeste 37 Sudeste 0 -- -- 40
2020-09-13 06:00:00 25.2 15 Sudeste 34 Sudeste 0 -- -- 37
2020-09-13 05:00:00 25.2 14 Sur 39 Sur 0 -- -- 35
2020-09-13 04:00:00 26 20 Sudeste 36 Este 0 -- -- 33
2020-09-13 03:00:00 26.4 16 Sudeste 35 Sudeste 0 -- -- 31
2020-09-13 02:00:00 26.8 15 Sudeste 34 Sur 0 -- -- 30
2020-09-13 01:00:00 27.5 16 Sudeste 25 Sur 0 -- -- 26
2020-09-13 00:00:00 28.2 13 Sudeste 20 Sudeste 0 -- -- 28
2020-09-12 23:00:00 28.9 9 Sur 13 Sur 0 -- -- 28
2020-09-12 22:00:00 30 3 Sudoeste 9 Sudeste 0 -- -- 26
2020-09-12 21:00:00 31 7 Sudeste 21 Sudoeste 0 -- -- 25
2020-09-12 20:00:00 32.7 5 Sur 14 Sudoeste 0 -- -- 23
2020-09-12 19:00:00 33.3 5 Nordeste 25 Sudeste 0 -- -- 22
2020-09-12 18:00:00 34.7 13 Sudeste 26 Este 0 -- -- 21
2020-09-12 17:00:00 35.7 5 Sur 24 Sudeste 0 -- -- 20
2020-09-12 16:00:00 35 10 Sudeste 26 Sudeste 0 -- -- 20
2020-09-12 15:00:00 35.3 14 Sur 28 Sudeste 0 -- -- 21
2020-09-12 14:00:00 34.1 12 Sur 23 Sudeste 0 -- -- 23
2020-09-12 13:00:00 32.6 12 Sur 25 Sur 0 -- -- 24
2020-09-12 12:00:00 30.8 14 Sudeste 24 Sur 0 -- -- 27
2020-09-12 11:00:00 28.6 13 Sudeste 24 Sudeste 0 -- -- 30
2020-09-12 10:00:00 26.1 12 Sudeste 24 Sudeste 0 -- -- 34
2020-09-12 09:00:00 24.1 18 Sudeste 27 Sudeste 0 -- -- 37
2020-09-12 08:00:00 24 18 Sudeste 26 Sudeste 0 -- -- 35
2020-09-12 07:00:00 24.5 20 Sudeste 27 Sudeste 0 -- -- 32
2020-09-12 06:00:00 25.1 11 Sudeste 14 Sudeste 0 -- -- 33
2020-09-12 05:00:00 25.1 10 Sudeste 17 Sur 0 -- -- 33
2020-09-12 04:00:00 25 5 Este 14 Sudeste 0 -- -- 33
2020-09-12 03:00:00 26.3 10 Sudeste 12 Sudeste 0 -- -- 32
2020-09-12 02:00:00 26.8 6 Sur 13 Sur 0 -- -- 30
2020-09-12 01:00:00 27.2 8 Sudeste 14 Sur 0 -- -- 29
2020-09-12 00:00:00 27.6 8 Sudeste 15 Sur 0 -- -- 24
2020-09-11 23:00:00 28 6 Sudeste 9 Sudeste 0 -- -- 23
2020-09-11 22:00:00 28.3 6 Sudeste 13 Sudeste 0 -- -- 23
2020-09-11 21:00:00 29.4 8 Nordeste 18 Norte 0 -- -- 22
2020-09-11 20:00:00 31 11 Norte 25 Norte 0 -- -- 21
2020-09-11 19:00:00 32.7 5 Sudoeste 8 Sudoeste 0 -- -- 19
2020-09-11 18:00:00 32.4 5 Noroeste 22 Noroeste 0 -- -- 19
2020-09-11 17:00:00 33.6 7 Este 18 Norte 0 -- -- 18
2020-09-11 16:00:00 33.8 6 Norte 23 Sudoeste 0 -- -- 18
2020-09-11 15:00:00 34.7 10 Sudoeste 20 Oeste 0 -- -- 18
2020-09-11 14:00:00 33.5 8 Sur 21 Sur 0 -- -- 20
2020-09-11 13:00:00 32.1 12 Sur 23 Sur 0 -- -- 22
2020-09-11 12:00:00 30.4 14 Sur 24 Sudeste 0 -- -- 25
2020-09-11 11:00:00 27 15 Sudeste 27 Sudeste 0 -- -- 28
2020-09-11 10:00:00 24.9 14 Sudeste 24 Sudeste 0 -- -- 29
2020-09-11 09:00:00 22.5 4 Sudeste 8 Sudeste 0 -- -- 32
2020-09-11 08:00:00 22.3 4 Sur 7 Sudeste 0 -- -- 32
2020-09-11 07:00:00 23.2 0 Calma 5 Sudeste 0 -- -- 30
2020-09-11 06:00:00 23.6 4 Sudeste 10 Sur 0 -- -- 30
2020-09-11 05:00:00 22.7 7 Sudeste 11 Sudeste 0 -- -- 30
2020-09-11 04:00:00 25.6 7 Sudeste 15 Este 0 -- -- 27
2020-09-11 03:00:00 25.3 6 Sudeste 13 Este 0 -- -- 27
2020-09-11 02:00:00 26 2 Sudeste -- -- 0 -- -- 26
2020-09-11 01:00:00 26.1 2 Sur 6 Sudeste 0 -- -- 26
2020-09-11 00:00:00 26.5 0 Calma 9 Norte 0 -- -- 25
2020-09-10 23:00:00 27.9 6 Nordeste 7 Nordeste 0 -- -- 24
2020-09-10 22:00:00 28.2 5 Nordeste 8 Nordeste 0 -- -- 23
2020-09-10 21:00:00 28.9 5 Nordeste 13 Norte 0 -- -- 22
2020-09-10 20:00:00 31.2 8 Norte 18 Norte 0 -- -- 20
2020-09-10 19:00:00 31.1 8 Norte 27 Norte 0 -- -- 21
2020-09-10 18:00:00 32.4 11 Norte 24 Norte 0 -- -- 19
2020-09-10 17:00:00 32.2 11 Norte 23 Noroeste 0 -- -- 20
2020-09-10 16:00:00 32.3 12 Noroeste 24 Noroeste 0 -- -- 20
2020-09-10 15:00:00 31.3 12 Noroeste 20 Norte 0 -- -- 22
2020-09-10 14:00:00 30.7 9 Norte 18 Norte 0 -- -- 23
2020-09-10 13:00:00 29.6 6 Nordeste 13 Norte 0 -- -- 25
2020-09-10 12:00:00 28.2 5 Norte 10 Norte 0 -- -- 28
2020-09-10 11:00:00 27.2 4 Sudoeste 8 Sudoeste 0 -- -- 30
2020-09-10 10:00:00 24.4 3 Sudoeste 4 Sudeste 0 -- -- 36
2020-09-10 09:00:00 20.9 3 Sudeste 9 Sudeste 0 -- -- 42
2020-09-10 08:00:00 20.4 6 Sudeste 9 Sudeste 0 -- -- 43
2020-09-10 07:00:00 21 2 Sudeste 6 Noroeste 0 -- -- 39
2020-09-10 06:00:00 21.9 0 Calma 5 Sudeste 0 -- -- 36
2020-09-10 05:00:00 22.6 0 Calma 4 Noroeste 0 -- -- 35
2020-09-10 04:00:00 23.4 4 Noroeste 8 Nordeste 0 -- -- 34
2020-09-10 03:00:00 23.9 0 Calma 5 Sudeste 0 -- -- 34
2020-09-10 02:00:00 23.8 3 Sur 5 Norte 0 -- -- 33
2020-09-10 01:00:00 25.3 3 Norte 5 Norte 0 -- -- 31
2020-09-10 00:00:00 24.9 0 Calma 7 Norte 0 -- -- 30
2020-09-09 23:00:00 26.2 5 Nordeste 9 Nordeste 0 -- -- 26
2020-09-09 22:00:00 26.7 4 Nordeste 8 Norte 0 -- -- 26
2020-09-09 21:00:00 27.4 5 Norte 15 Nordeste 0 -- -- 25
2020-09-09 20:00:00 28.7 9 Nordeste 23 Norte 0 -- -- 25
2020-09-09 19:00:00 30.1 9 Norte 23 Noroeste 0 -- -- 26
2020-09-09 18:00:00 29.8 10 Nordeste 22 Nordeste 0 -- -- 27
2020-09-09 17:00:00 29.6 9 Nordeste 23 Nordeste 0 -- -- 28
2020-09-09 16:00:00 29.3 8 Norte 20 Norte 0 -- -- 30
2020-09-09 15:00:00 28.3 8 Nordeste 17 Este 0 -- -- 35
2020-09-09 14:00:00 29.1 6 Noroeste 21 Sudoeste 0 -- -- 36
2020-09-09 13:00:00 28.5 10 Sur 17 Sur 0 -- -- 42
2020-09-09 12:00:00 26.3 9 Sur 18 Sur 0 -- -- 50
2020-09-09 11:00:00 24.2 8 Sur 19 Sudeste 0 -- -- 52
2020-09-09 10:00:00 21.6 13 Sudeste 26 Sudeste 0 -- -- 58
2020-09-09 09:00:00 19.3 17 Sudeste 27 Sudeste 0 -- -- 66
2020-09-09 08:00:00 19 17 Sudeste 28 Sudeste 0 -- -- 65
2020-09-09 07:00:00 19.3 19 Sudeste 30 Sudeste 0 -- -- 63
2020-09-09 06:00:00 20 19 Sudeste 28 Sudeste 0 -- -- 60
2020-09-09 05:00:00 21.4 6 Sudeste 16 Sudeste 0 -- -- 57
2020-09-09 04:00:00 22.2 10 Sudeste 24 Sudeste 0 -- -- 52
2020-09-09 03:00:00 22.5 13 Sudeste 24 Sudeste 0 -- -- 49
2020-09-09 02:00:00 22.7 17 Sudeste 28 Sudeste 0 -- -- 37
2020-09-09 01:00:00 24.6 13 Este 23 Sudeste 0 -- -- 30
2020-09-09 00:00:00 26.3 9 Sudeste 22 Sudeste 0 -- -- 25
2020-09-08 23:00:00 26.4 8 Este 17 Este 0 -- -- 26
2020-09-08 22:00:00 26.7 9 Este 19 Nordeste 0 -- -- 26
2020-09-08 21:00:00 27.1 7 Nordeste 18 Nordeste 0 -- -- 25
2020-09-08 20:00:00 28.6 10 Nordeste 22 Nordeste 0 -- -- 22
2020-09-08 19:00:00 29.3 11 Norte 22 Norte 0 -- -- 22
2020-09-08 18:00:00 29.3 7 Nordeste 23 Nordeste 0 -- -- 23
2020-09-08 17:00:00 29.6 10 Norte 25 Nordeste 0 -- -- 25
2020-09-08 16:00:00 29 9 Este 27 Nordeste 0 -- -- 27
2020-09-08 15:00:00 28.9 8 Nordeste 29 Nordeste 0 -- -- 29
2020-09-08 14:00:00 27.6 12 Este 27 Este 0 -- -- 31
2020-09-08 13:00:00 26.2 13 Este 22 Nordeste 0 -- -- 32
2020-09-08 12:00:00 24.5 7 Este 18 Este 0 -- -- 40
2020-09-08 11:00:00 23.9 3 Sudeste 14 Sudeste 0 -- -- 44
2020-09-08 10:00:00 20.4 2 Sudoeste 12 Sudeste 0 -- -- 51
2020-09-08 09:00:00 17.5 3 Oeste 14 Este 0 -- -- 51
2020-09-08 08:00:00 19.2 13 Este 23 Este 0 -- -- 52
2020-09-08 07:00:00 19.6 4 Este 19 Este 0 -- -- 37
2020-09-08 06:00:00 20.6 14 Este 23 Este 0 -- -- 31
2020-09-08 05:00:00 22.8 8 Sudeste 25 Sudeste 0 -- -- 24
2020-09-08 04:00:00 23.7 16 Sudeste 27 Sudeste 0 -- -- 23
2020-09-08 03:00:00 24.3 14 Sudeste 28 Sudeste 0 -- -- 22
2020-09-08 02:00:00 23.9 14 Sudeste 26 Sudeste 0 -- -- 24
2020-09-08 01:00:00 25.1 18 Sudeste 34 Este 0 -- -- 22
2020-09-08 00:00:00 25.9 20 Este 40 Este 0 -- -- 23
2020-09-07 23:00:00 26.9 25 Este 40 Este 0 -- -- 25
2020-09-07 22:00:00 27.2 8 Norte 16 Norte 0 -- -- 25
2020-09-07 21:00:00 29 11 Norte 25 Noroeste 0 -- -- 21
2020-09-07 20:00:00 31.6 19 Norte 33 Norte 0 -- -- 20
2020-09-07 19:00:00 32.8 17 Norte 35 Norte 0 -- -- 21
2020-09-07 18:00:00 33.6 15 Norte 31 Noroeste 0 -- -- 23
2020-09-07 17:00:00 33.9 14 Norte 34 Noroeste 0 -- -- 23
2020-09-07 16:00:00 33.7 14 Noroeste 31 Norte 0 -- -- 23
2020-09-07 15:00:00 33.2 12 Noroeste 26 Norte 0 -- -- 23
2020-09-07 14:00:00 31.9 7 Nordeste 16 Nordeste 0 -- -- 25
2020-09-07 13:00:00 31.5 6 Norte 13 Noroeste 0 -- -- 25
2020-09-07 12:00:00 29.8 4 Noroeste 11 Oeste 0 -- -- 28
2020-09-07 11:00:00 27.3 5 Norte 9 Norte 0 -- -- 32
2020-09-07 10:00:00 24.9 3 Norte 6 Noroeste 0 -- -- 37
2020-09-07 09:00:00 22.3 0 Calma 2 Noroeste 0 -- -- 40
2020-09-07 08:00:00 22.6 0 Calma 4 Sur 0 -- -- 39
2020-09-07 07:00:00 23.3 0 Calma 6 Sudoeste 0 -- -- 36
2020-09-07 06:00:00 24 4 Sur 8 Sudoeste 0 -- -- 33
2020-09-07 05:00:00 24.8 3 Sur 7 Sur 0 -- -- 29
2020-09-07 04:00:00 25.4 5 Sudeste 10 Sudoeste 0 -- -- 29
2020-09-07 03:00:00 27.1 0 Calma 6 Norte 0 -- -- 27
2020-09-07 02:00:00 28.1 4 Norte 10 Norte 0 -- -- 26
2020-09-07 01:00:00 28.8 5 Norte 10 Norte 0 -- -- 25
2020-09-07 00:00:00 29.4 5 Norte 7 Norte 0 -- -- 23
2020-09-06 23:00:00 29.4 3 Norte 7 Noroeste 0 -- -- 23
2020-09-06 22:00:00 30 5 Norte 12 Noroeste 0 -- -- 23
2020-09-06 21:00:00 31.3 8 Norte 17 Noroeste 0 -- -- 21
2020-09-06 20:00:00 33.6 11 Noroeste 26 Noroeste 0 -- -- 19
2020-09-06 19:00:00 33.8 12 Norte 27 Oeste 0 -- -- 20
2020-09-06 18:00:00 34.7 11 Norte 24 Noroeste 0 -- -- 20
2020-09-06 17:00:00 34.8 13 Norte 26 Norte 0 -- -- 21
2020-09-06 16:00:00 35.8 12 Sudoeste 19 Oeste 0 -- -- 21
2020-09-06 15:00:00 33.3 6 Nordeste 18 Oeste 0 -- -- 24
2020-09-06 14:00:00 32.9 5 Norte 17 Sudoeste 0 -- -- 24
2020-09-06 13:00:00 32.7 6 Sudoeste 14 Sudoeste 0 -- -- 26
2020-09-06 12:00:00 30.9 8 Sur 16 Sur 0 -- -- 31
2020-09-06 11:00:00 28.5 11 Sudeste 23 Este 0 -- -- 35
2020-09-06 10:00:00 25.8 13 Sudeste 26 Sudeste 0 -- -- 41
2020-09-06 09:00:00 22.3 18 Sudeste 35 Sudeste 0 -- -- 51
2020-09-06 08:00:00 22.1 25 Sudeste 34 Sudeste 0 -- -- 47
2020-09-06 07:00:00 24.1 22 Sudeste 30 Sudeste 0 -- -- 39
2020-09-06 06:00:00 24.8 15 Sudeste 27 Este 0 -- -- 37
2020-09-06 05:00:00 26 15 Sudeste 22 Sudeste 0 -- -- 33
2020-09-06 04:00:00 26.9 12 Sudeste 18 Sudeste 0 -- -- 30
2020-09-06 03:00:00 27.3 2 Oeste 5 Sudeste 0 -- -- 27
2020-09-06 02:00:00 27.6 5 Sudeste 15 Sudeste 0 -- -- 26
2020-09-06 01:00:00 28.3 14 Sudeste 18 Sudeste 0 -- -- 25
2020-09-06 00:00:00 27.9 2 Sudeste 8 Norte 0 -- -- 26
2020-09-05 23:00:00 29.3 6 Nordeste 9 Nordeste 0 -- -- 25
2020-09-05 22:00:00 29.9 6 Nordeste 11 Nordeste 0 -- -- 24
2020-09-05 21:00:00 31 7 Nordeste 14 Norte 0 -- -- 23
2020-09-05 20:00:00 33 7 Norte 19 Norte 0 -- -- 21
2020-09-05 19:00:00 33.3 6 Nordeste 21 Nordeste 0 -- -- 20
2020-09-05 18:00:00 34.1 5 Nordeste 26 Nordeste 0 -- -- 19
2020-09-05 17:00:00 33.5 10 Nordeste 23 Norte 0 -- -- 21
2020-09-05 16:00:00 34.4 8 Noroeste 18 Noroeste 0 -- -- 21
2020-09-05 15:00:00 32.7 10 Nordeste 18 Noroeste 0 -- -- 23
2020-09-05 14:00:00 33.9 10 Sudoeste 18 Sur 0 -- -- 23
2020-09-05 13:00:00 32.3 9 Sur 16 Sudoeste 0 -- -- 25
2020-09-05 12:00:00 30.1 11 Sur 20 Sudeste 0 -- -- 30
2020-09-05 11:00:00 27.6 11 Sudeste 24 Sudeste 0 -- -- 36
2020-09-05 10:00:00 24.6 16 Sudeste 26 Sudeste 0 -- -- 43
2020-09-05 09:00:00 21.9 20 Sudeste 29 Sudeste 0 -- -- 53
2020-09-05 08:00:00 21.7 24 Sudeste 34 Sudeste 0 -- -- 53
2020-09-05 07:00:00 22.3 26 Sudeste 33 Sudeste 0 -- -- 50
2020-09-05 06:00:00 22.7 24 Sudeste 33 Sudeste 0 -- -- 45
2020-09-05 05:00:00 23.4 22 Sudeste 32 Sudeste 0 -- -- 41
2020-09-05 04:00:00 25 19 Sudeste 23 Sudeste 0 -- -- 34
2020-09-05 03:00:00 25.9 12 Sudeste 18 Sudeste 0 -- -- 30
2020-09-05 02:00:00 26.4 11 Sudeste 17 Sudeste 0 -- -- 29
2020-09-05 01:00:00 27 9 Sur 15 Sudeste 0 -- -- 28
2020-09-05 00:00:00 27.5 10 Sur 19 Sudeste 0 -- -- 27
2020-09-04 23:00:00 28.1 12 Sur 19 Sudoeste 0 -- -- 24
2020-09-04 22:00:00 30.8 9 Este 13 Este 0 -- -- 17
2020-09-04 21:00:00 31.6 7 Este 14 Este 0 -- -- 17
2020-09-04 20:00:00 33.2 5 Nordeste 12 Este 0 -- -- 18
2020-09-04 19:00:00 33.5 8 Nordeste 23 Este 0 -- -- 20
2020-09-04 18:00:00 34.2 5 Nordeste 23 Sur 0 -- -- 20
2020-09-04 17:00:00 35 5 Sudoeste 34 Este 0 -- -- 20
2020-09-04 16:00:00 33.2 8 Sudeste 26 Sudeste 0 -- -- 22
2020-09-04 15:00:00 31.9 9 Nordeste 32 Nordeste 0 -- -- 26
2020-09-04 14:00:00 30.3 12 Nordeste 27 Este 0 -- -- 30
2020-09-04 13:00:00 29.1 9 Nordeste 20 Nordeste 0 -- -- 32
2020-09-04 12:00:00 27.9 6 Nordeste 14 Nordeste 0 -- -- 33
2020-09-04 11:00:00 26.9 3 Noroeste 9 Sur 0 -- -- 36
2020-09-04 10:00:00 24.7 2 Noroeste 9 Sur 0 -- -- 39
2020-09-04 09:00:00 22.8 6 Sudeste 15 Sudeste 0 -- -- 47
2020-09-04 08:00:00 19.8 10 Sudeste 14 Sudeste 0 -- -- 50
2020-09-04 07:00:00 22.1 6 Sudeste 22 Sudeste 0 -- -- 45
2020-09-04 06:00:00 22.9 16 Sudeste 26 Este 0 -- -- 44
2020-09-04 05:00:00 23.2 19 Sudeste 28 Sudeste 0 -- -- 42
2020-09-04 04:00:00 23.8 19 Sudeste 30 Sudeste 0 -- -- 38
2020-09-04 03:00:00 24.4 15 Sudeste 26 Sudeste 0 -- -- 36
2020-09-04 02:00:00 25.2 11 Sudeste 17 Sudeste 0 -- -- 35
2020-09-04 01:00:00 25.9 9 Sur 22 Sur 0 -- -- 35
2020-09-04 00:00:00 26.8 11 Sudeste 24 Sur 0 -- -- 33
2020-09-03 23:00:00 29.3 7 Este 13 Nordeste 0 -- -- 23
2020-09-03 22:00:00 29.8 6 Nordeste 9 Nordeste 0 -- -- 22
2020-09-03 21:00:00 31.1 2 Nordeste 13 Este 0 -- -- 21
2020-09-03 20:00:00 32.7 7 Este 15 Sudeste 0 -- -- 19
2020-09-03 19:00:00 33.1 7 Nordeste 22 Este 0 -- -- 19
2020-09-03 18:00:00 33.1 14 Este 32 Este 0 -- -- 19
2020-09-03 17:00:00 33.1 10 Este 23 Este 0 -- -- 19
2020-09-03 16:00:00 32.6 10 Nordeste 23 Este 0 -- -- 20
2020-09-03 15:00:00 32.3 9 Nordeste 21 Sur 0 -- -- 19
2020-09-03 14:00:00 33.2 6 Sur 19 Sudeste 0 -- -- 22
2020-09-03 13:00:00 31.1 6 Sudoeste 17 Sur 0 -- -- 28
2020-09-03 12:00:00 30 9 Sur 18 Sudeste 0 -- -- 30
2020-09-03 11:00:00 27.4 10 Sur 23 Sudeste 0 -- -- 35
2020-09-03 10:00:00 24 16 Sudeste 28 Sudeste 0 -- -- 43
2020-09-03 09:00:00 21.4 18 Sudeste 28 Sudeste 0 -- -- 52
2020-09-03 08:00:00 20.8 20 Sudeste 31 Sudeste 0 -- -- 47
2020-09-03 07:00:00 21.3 19 Sudeste 30 Sudeste 0 -- -- 37
2020-09-03 06:00:00 21.9 25 Sudeste 33 Sudeste 0 -- -- 34
2020-09-03 05:00:00 23.9 2 Sudeste 7 Sudeste 0 -- -- 28
2020-09-03 04:00:00 23.5 6 Sur 8 Sur 0 -- -- 26
2020-09-03 03:00:00 24 2 Sudoeste 8 Oeste 0 -- -- 25
2020-09-03 02:00:00 25.4 4 Este 10 Este 0 -- -- 23
2020-09-03 01:00:00 25.6 8 Sudeste 21 Sudeste 0 -- -- 22
2020-09-03 00:00:00 26.1 2 Noroeste 10 Nordeste 0 -- -- 22
2020-09-02 23:00:00 27.4 7 Nordeste 73 Este 0 -- -- 21
2020-09-02 22:00:00 -- -- -- -- -- -- -- -- --
2020-09-02 21:00:00 29 6 Nordeste 12 Nordeste 0 -- -- 19
2020-09-02 20:00:00 30.7 8 Nordeste 18 Nordeste 0 -- -- 18
2020-09-02 19:00:00 31.6 7 Norte 16 Norte 0 -- -- 17
2020-09-02 18:00:00 -- -- -- -- -- -- -- -- --
2020-09-02 17:00:00 -- -- -- -- -- -- -- -- --
2020-09-02 16:00:00 -- -- -- -- -- -- -- -- --
2020-09-02 15:00:00 -- -- -- -- -- -- -- -- --
2020-09-02 14:00:00 -- -- -- -- -- -- -- -- --
2020-09-02 13:00:00 30 10 Sur -- -- 0 -- -- 25
2020-09-02 12:00:00 28 13 Sur -- -- 0 -- -- 28
2020-09-02 11:00:00 25.2 11 Sur -- -- 0 -- -- 38
2020-09-02 10:00:00 21 2 Norte 8 Sudeste 0 -- -- 51
2020-09-02 09:00:00 17.4 3 Sudeste 39 Sur 0 -- -- 61
2020-09-02 08:00:00 17.2 0 Calma 4 Sur 0 -- -- 62
2020-09-02 07:00:00 17.7 2 Sudoeste 6 Oeste 0 -- -- 61
2020-09-02 06:00:00 18.6 2 Sudoeste 12 Sudeste 0 -- -- 58
2020-09-02 05:00:00 18.8 3 Sur 12 Sur 0 -- -- 57
2020-09-02 04:00:00 19.4 3 Sur 7 Sur 0 -- -- 55
2020-09-02 03:00:00 20.2 3 Sudoeste 13 Sudoeste 0 -- -- 49
2020-09-02 02:00:00 21.5 9 Sudoeste 15 Sudoeste 0 -- -- 40
2020-09-02 01:00:00 22.6 7 Sudoeste 13 Sudoeste 0 -- -- 34
2020-09-02 00:00:00 24.5 2 Oeste 6 Oeste 0 -- -- 19
2020-09-01 23:00:00 25.5 2 Norte 8 Norte 0 -- -- 18
2020-09-01 22:00:00 26.1 5 Nordeste 12 Norte 0 -- -- 17
2020-09-01 21:00:00 27.2 6 Norte 21 Norte 0 -- -- 17
2020-09-01 20:00:00 29.1 12 Norte 24 Norte 0 -- -- 16
2020-09-01 19:00:00 29.6 12 Norte 25 Norte 0 -- -- 15
2020-09-01 18:00:00 31.2 9 Noroeste 27 Noroeste 0 -- -- 16
2020-09-01 17:00:00 31.4 12 Noroeste 26 Noroeste 0 -- -- 16
2020-09-01 16:00:00 29.7 8 Norte 23 Noroeste 0 -- -- 18
2020-09-01 15:00:00 29.5 8 Norte 26 Noroeste 0 -- -- 17
2020-09-01 14:00:00 29.5 8 Noroeste 19 Oeste 0 -- -- 19
2020-09-01 13:00:00 27.7 4 Noroeste 14 Sudoeste -- -- -- 22
2020-09-01 12:00:00 26.6 6 Sudoeste 12 Sudoeste 0 -- -- 25
2020-09-01 11:00:00 22.7 3 Sudeste 19 Sudeste 0 -- -- 29
2020-09-01 10:00:00 22 10 Sudeste 16 Sudeste 0 -- -- 34
2020-09-01 09:00:00 21.1 7 Sudeste 23 Sudeste 0 -- -- 30
2020-09-01 08:00:00 20.8 5 Noroeste 18 Sudeste 0 -- -- 25
2020-09-01 07:00:00 20.4 4 Norte 12 Sudeste 0 -- -- 25
2020-09-01 06:00:00 22 2 Oeste 4 Oeste 0 -- -- 24
2020-09-01 05:00:00 22.3 0 Calma 11 Sudeste 0 -- -- 24
2020-09-01 04:00:00 22.6 9 Sudeste 12 Sudeste 0 -- -- 23
2020-09-01 03:00:00 22.9 8 Sudeste 14 Sudeste 0 -- -- 24
2020-09-01 02:00:00 23.6 6 Sudeste 15 Este 0 -- -- 22
2020-09-01 01:00:00 -- -- -- -- -- -- -- -- --
2020-09-01 00:00:00 -- -- -- -- -- -- -- -- --
2020-08-31 23:00:00 -- -- -- -- -- -- -- -- --
2020-08-31 22:00:00 -- -- -- -- -- -- -- -- --
2020-08-31 21:00:00 -- -- -- -- -- -- -- -- --
2020-08-31 20:00:00 -- -- -- -- -- -- -- -- --
2020-08-31 19:00:00 -- -- -- -- -- -- -- -- --
2020-08-31 18:00:00 -- -- -- -- -- -- -- -- --
2020-08-31 17:00:00 -- -- -- -- -- -- -- -- --
2020-08-31 16:00:00 -- -- -- -- -- -- -- -- --
2020-08-31 15:00:00 -- -- -- -- -- -- -- -- --
2020-08-31 14:00:00 -- -- -- -- -- -- -- -- --
2020-08-31 13:00:00 -- -- -- -- -- -- -- -- --
2020-08-31 12:00:00 -- -- -- -- -- -- -- -- --
2020-08-31 11:00:00 -- -- -- -- -- -- -- -- --
2020-08-31 10:00:00 -- -- -- -- -- -- -- -- --
2020-08-31 09:00:00 -- -- -- -- -- -- -- -- --
2020-08-31 08:00:00 17.2 4 Norte 18 Sudeste 0 -- -- 32
2020-08-31 07:00:00 19 6 Sudeste 22 Este 0 -- -- 29
2020-08-31 06:00:00 19.5 13 Este 21 Sudeste 0 -- -- 28
2020-08-31 05:00:00 18.6 8 Este 11 Este 0 -- -- 30
2020-08-31 04:00:00 18.7 4 Sur 12 Sudeste 0 -- -- 30
2020-08-31 03:00:00 20.2 5 Sudeste 22 Sudeste 0 -- -- 28
2020-08-31 02:00:00 21 9 Sudeste 21 Este 0 -- -- 28
2020-08-31 01:00:00 21.3 10 Nordeste 19 Nordeste 0 -- -- 27
2020-08-31 00:00:00 21.9 7 Este 21 Este 0 -- -- 26
2020-08-30 23:00:00 21.6 8 Nordeste 19 Norte 0 -- -- 26
2020-08-30 22:00:00 23 6 Norte 15 Norte 0 -- -- 25
2020-08-30 21:00:00 24.4 5 Norte 17 Norte 0 -- -- 23
2020-08-30 20:00:00 25.7 5 Norte 24 Noroeste 0 -- -- 19
2020-08-30 19:00:00 26.1 9 Norte 24 Norte 0 -- -- 19
2020-08-30 18:00:00 26.6 12 Norte 22 Norte 0 -- -- 22
2020-08-30 17:00:00 26.9 6 Norte 24 Norte 0 -- -- 22
2020-08-30 16:00:00 26.1 11 Norte 27 Norte 0 -- -- 24
2020-08-30 15:00:00 25.7 8 Norte 21 Norte 0 -- -- 24
2020-08-30 14:00:00 25.1 8 Nordeste 18 Norte 0 -- -- 26
2020-08-30 13:00:00 23.8 8 Nordeste 22 Nordeste 0 -- -- 30
2020-08-30 12:00:00 22.3 10 Nordeste 25 Este 0 -- -- 34
2020-08-30 11:00:00 21.3 4 Norte 15 Este 0 -- -- 36
2020-08-30 10:00:00 18.6 8 Este 15 Este 0 -- -- 41
2020-08-30 09:00:00 16.7 2 Oeste 18 Sudeste 0 -- -- 46
2020-08-30 08:00:00 17.1 10 Sudeste 21 Este 0 -- -- 44
2020-08-30 07:00:00 17.6 12 Sudeste 20 Sudeste 0 -- -- 42
2020-08-30 06:00:00 17.8 6 Este 13 Este 0 -- -- 39
2020-08-30 05:00:00 17.5 7 Nordeste 11 Nordeste 0 -- -- 41
2020-08-30 04:00:00 17.6 4 Nordeste 9 Nordeste 0 -- -- 41
2020-08-30 03:00:00 18.4 6 Este 17 Sudeste 0 -- -- 38
2020-08-30 02:00:00 18.3 4 Nordeste 8 Nordeste 0 -- -- 39
2020-08-30 01:00:00 18.6 4 Norte 17 Norte 0 -- -- 38
2020-08-30 00:00:00 19.9 8 Norte 15 Norte 0 -- -- 35
2020-08-29 23:00:00 20.7 8 Norte 22 Noroeste 0 -- -- 33
2020-08-29 22:00:00 21.8 15 Norte 27 Norte 0 -- -- 30
2020-08-29 21:00:00 23.3 18 Norte 35 Noroeste 0 -- -- 27
2020-08-29 20:00:00 25.1 19 Noroeste 33 Norte 0 -- -- 25
2020-08-29 19:00:00 26.5 18 Noroeste 36 Norte 0 -- -- 23
2020-08-29 18:00:00 26.2 16 Norte 35 Noroeste 0 -- -- 23
2020-08-29 17:00:00 25.9 11 Norte 34 Noroeste 0 -- -- 25
2020-08-29 16:00:00 25.7 12 Noroeste 42 Oeste 0 -- -- 27
2020-08-29 15:00:00 24.9 15 Norte 28 Norte 0 -- -- 30
2020-08-29 14:00:00 23.6 10 Norte 29 Norte 0 -- -- 33
2020-08-29 13:00:00 21.6 13 Norte 27 Norte 0 -- -- 38
2020-08-29 12:00:00 19.9 10 Norte 19 Noroeste 0 -- -- 41
2020-08-29 11:00:00 17.4 9 Norte 27 Noroeste 0 -- -- 47
2020-08-29 10:00:00 15.6 14 Noroeste 28 Noroeste 0 -- -- 52
2020-08-29 09:00:00 14.1 8 Noroeste 15 Noroeste 0 -- -- 56
2020-08-29 08:00:00 13.2 4 Noroeste 14 Noroeste 0 -- -- 62
2020-08-29 07:00:00 13.8 9 Noroeste 19 Noroeste 0 -- -- 63
2020-08-29 06:00:00 14.3 8 Oeste 22 Oeste 0 -- -- 65
2020-08-29 05:00:00 15.2 8 Noroeste 19 Oeste 0 -- -- 63
2020-08-29 04:00:00 16.2 12 Noroeste 23 Oeste 0 -- -- 59
2020-08-29 03:00:00 17.1 11 Oeste 25 Noroeste 0 -- -- 54
2020-08-29 02:00:00 18.2 14 Noroeste 25 Noroeste 0 -- -- 49
2020-08-29 01:00:00 19.4 12 Oeste 28 Oeste 0 -- -- 45
2020-08-29 00:00:00 20.7 14 Noroeste 26 Oeste 0 -- -- 39
2020-08-28 23:00:00 22 14 Oeste 28 Oeste 0 -- -- 30
2020-08-28 22:00:00 23.7 18 Oeste 28 Noroeste 0 -- -- 29
2020-08-28 21:00:00 26.1 17 Oeste 35 Noroeste 0 -- -- 21
2020-08-28 20:00:00 28.7 24 Oeste 38 Oeste 0 -- -- 18
2020-08-28 19:00:00 30.1 23 Noroeste 40 Noroeste 0 -- -- 27
2020-08-28 18:00:00 30.7 25 Noroeste 44 Oeste 0 -- -- 27
2020-08-28 17:00:00 30.7 25 Noroeste 43 Noroeste 0 -- -- 30
2020-08-28 16:00:00 31 21 Noroeste 41 Oeste 0 -- -- 33
2020-08-28 15:00:00 29.9 23 Noroeste 42 Oeste 0 -- -- 36
2020-08-28 14:00:00 28.4 19 Noroeste 37 Noroeste 0 -- -- 42
2020-08-28 13:00:00 27.6 18 Noroeste 30 Norte 0 -- -- 41
2020-08-28 12:00:00 26.7 16 Noroeste 30 Oeste 0 -- -- 43
2020-08-28 11:00:00 24 12 Oeste 22 Oeste 0 -- -- 54
2020-08-28 10:00:00 21.6 9 Oeste 13 Sudoeste 0 -- -- 64
2020-08-28 09:00:00 18.7 5 Sudoeste 10 Sur 0 -- -- 78
2020-08-28 08:00:00 18.2 5 Sur 10 Sur 0 -- -- 81
2020-08-28 07:00:00 18.9 4 Sudoeste 12 Sudoeste 0 -- -- 78
2020-08-28 06:00:00 19.7 4 Sudoeste 15 Oeste 0 -- -- 76
2020-08-28 05:00:00 20.9 7 Sudoeste 14 Sudoeste 0 -- -- 71
2020-08-28 04:00:00 22 5 Sudoeste 9 Sudoeste 0 -- -- 66
2020-08-28 03:00:00 23 5 Sudoeste 11 Oeste 0 -- -- 62
2020-08-28 02:00:00 24.3 7 Oeste 15 Oeste 0 -- -- 55
2020-08-28 01:00:00 26 7 Oeste 24 Oeste 0 -- -- 50
2020-08-28 00:00:00 27.7 12 Oeste 24 Oeste 0 -- -- 47
2020-08-27 23:00:00 29.3 13 Oeste 24 Oeste 0 -- -- 39
2020-08-27 22:00:00 30.9 8 Noroeste 20 Noroeste 0 -- -- 38
2020-08-27 21:00:00 32.7 11 Noroeste 23 Noroeste 0 -- -- 28
2020-08-27 20:00:00 35.4 12 Noroeste 27 Noroeste 0 -- -- 22
2020-08-27 19:00:00 36.3 16 Noroeste 33 Noroeste 0 -- -- 19
2020-08-27 18:00:00 36.9 18 Noroeste 35 Noroeste 0 -- -- 17
2020-08-27 17:00:00 36.6 17 Oeste 29 Noroeste 0 -- -- 21
2020-08-27 16:00:00 35.9 10 Norte 23 Oeste 0 -- -- 23
2020-08-27 15:00:00 35.6 10 Noroeste 21 Noroeste 0 -- -- 22
2020-08-27 14:00:00 34.1 5 Noroeste 14 Noroeste 0 -- -- 26
2020-08-27 13:00:00 32.4 5 Noroeste 15 Oeste 0 -- -- 29
2020-08-27 12:00:00 30.5 4 Oeste 15 Oeste 0 -- -- 33
2020-08-27 11:00:00 28 7 Oeste 11 Oeste 0 -- -- 40
2020-08-27 10:00:00 26.2 4 Sudoeste 7 Sudoeste 0 -- -- 44
2020-08-27 09:00:00 24.2 4 Noroeste 11 Norte 0 -- -- 48
2020-08-27 08:00:00 25 4 Noroeste 8 Sudeste 0 -- -- 40
2020-08-27 07:00:00 25 4 Sudeste 12 Sur 0 -- -- 41
2020-08-27 06:00:00 25.2 5 Sur 10 Sudeste 0 -- -- 40
2020-08-27 05:00:00 25.6 5 Sur 8 Sudoeste 0 -- -- 36
2020-08-27 04:00:00 26.2 4 Sur 10 Sur 0 -- -- 32
2020-08-27 03:00:00 26.7 5 Sur 9 Sur 0 -- -- 29
2020-08-27 02:00:00 27.5 4 Sur 6 Sur 0 -- -- 28
2020-08-27 01:00:00 28.3 4 Sudeste 6 Nordeste 0 -- -- 24
2020-08-27 00:00:00 29.2 0 Calma 6 Noroeste 0 -- -- 22
2020-08-26 23:00:00 30.1 0 Calma 15 Noroeste 0 -- -- 20
2020-08-26 22:00:00 31.7 10 Noroeste 19 Noroeste 0 -- -- 18
2020-08-26 21:00:00 33.3 10 Norte 27 Noroeste 0 -- -- 19
2020-08-26 20:00:00 35.8 16 Noroeste 26 Noroeste 0 -- -- 22
2020-08-26 19:00:00 37.2 12 Norte 23 Oeste 0 -- -- 19
2020-08-26 18:00:00 37.3 11 Norte 27 Norte 0 -- -- 19
2020-08-26 17:00:00 37.5 8 Noroeste 20 Nordeste 0 -- -- 18
2020-08-26 16:00:00 38 10 Noroeste 19 Oeste 0 -- -- 18
2020-08-26 15:00:00 37.8 12 Oeste 32 Oeste 0 -- -- 17
2020-08-26 14:00:00 36 6 Noroeste 30 Sur 0 -- -- 19
2020-08-26 13:00:00 35 7 Noroeste 14 Noroeste 0 -- -- 20
2020-08-26 12:00:00 34.1 8 Oeste 14 Oeste 0 -- -- 21
2020-08-26 11:00:00 32.6 8 Sur 15 Sudeste 0 -- -- 24
2020-08-26 10:00:00 29.2 8 Sur 15 Sudeste 0 -- -- 28
2020-08-26 09:00:00 25.4 0 Calma 5 Este 0 -- -- 34
2020-08-26 08:00:00 24.3 0 Calma 5 Sudeste 0 -- -- 36
2020-08-26 07:00:00 24.5 2 Sudeste 6 Sudeste 0 -- -- 35
2020-08-26 06:00:00 24.7 4 Sur 8 Sur 0 -- -- 35
2020-08-26 05:00:00 25 4 Sur 9 Sur 0 -- -- 33
2020-08-26 04:00:00 25.1 3 Sudeste 8 Sur 0 -- -- 32
2020-08-26 03:00:00 26.1 6 Sudeste 9 Sudeste 0 -- -- 30
2020-08-26 02:00:00 28.3 5 Oeste 12 Oeste 0 -- -- 27
2020-08-26 01:00:00 -- -- -- -- -- -- -- -- --
2020-08-26 00:00:00 -- -- -- -- -- -- -- -- --
2020-08-25 23:00:00 -- -- -- -- -- -- -- -- --
2020-08-25 22:00:00 -- -- -- -- -- -- -- -- --
2020-08-25 21:00:00 -- -- -- -- -- -- -- -- --
2020-08-25 20:00:00 -- -- -- -- -- -- -- -- --
2020-08-25 19:00:00 -- -- -- -- -- -- -- -- --
2020-08-25 18:00:00 -- -- -- -- -- -- -- -- --
2020-08-25 17:00:00 -- -- -- -- -- -- -- -- --
2020-08-25 16:00:00 -- -- -- -- -- -- -- -- --
2020-08-25 15:00:00 -- -- -- -- -- -- -- -- --
2020-08-25 14:00:00 -- -- -- -- -- -- -- -- --
2020-08-25 13:00:00 -- -- -- -- -- -- -- -- --
2020-08-25 12:00:00 -- -- -- -- -- -- -- -- --
2020-08-25 11:00:00 -- -- -- -- -- -- -- -- --
2020-08-25 10:00:00 -- -- -- -- -- -- -- -- --
2020-08-25 09:00:00 -- -- -- -- -- -- -- -- --
2020-08-25 08:00:00 24.3 8 Sudeste 13 Sudeste 0 -- -- 40
2020-08-25 07:00:00 24.1 6 Sudeste 10 Sur 0 -- -- 41
2020-08-25 06:00:00 24.8 6 Sur 12 Sur 0 -- -- 40
2020-08-25 05:00:00 25.2 8 Sur 10 Sur 0 -- -- 36
2020-08-25 04:00:00 25.6 6 Sur 13 Sur 0 -- -- 33
2020-08-25 03:00:00 26.3 10 Sur 18 Oeste 0 -- -- 29
2020-08-25 02:00:00 28.9 7 Sudeste 12 Sudeste 0 -- -- 24
2020-08-25 01:00:00 29.3 8 Sudeste 14 Sudeste 0 -- -- 21
2020-08-25 00:00:00 29.5 13 Sudeste 19 Sudeste 0 -- -- 20
2020-08-24 23:00:00 30.8 9 Nordeste 13 Nordeste 0 -- -- 19
2020-08-24 22:00:00 31.4 9 Nordeste 15 Nordeste 0 -- -- 19
2020-08-24 21:00:00 32.8 8 Norte 16 Norte 0 -- -- 17
2020-08-24 20:00:00 34.1 10 Norte 23 Noroeste 0 -- -- 18
2020-08-24 19:00:00 35.1 12 Norte 24 Norte 0 -- -- 17
2020-08-24 18:00:00 36.5 10 Norte 31 Noroeste 0 -- -- 16
2020-08-24 17:00:00 35.6 8 Nordeste 27 Oeste 0 -- -- 16
2020-08-24 16:00:00 35.2 9 Nordeste 22 Norte 0 -- -- 17
2020-08-24 15:00:00 35.5 8 Noroeste 20 Oeste 0 -- -- 17
2020-08-24 14:00:00 34.8 8 Sudoeste 17 Oeste 0 -- -- 19
2020-08-24 13:00:00 32.7 5 Sur 13 Sur 0 -- -- 22
2020-08-24 12:00:00 29.1 4 Nordeste 12 Sur 0 -- -- 28
2020-08-24 11:00:00 28.1 6 Sudoeste 12 Sur 0 -- -- 28
2020-08-24 10:00:00 24.6 6 Sur 8 Sur 0 -- -- 40
2020-08-24 09:00:00 21.6 0 Calma 6 Sudeste 0 -- -- 48
2020-08-24 08:00:00 20.3 0 Calma 4 Sur 0 -- -- 51
2020-08-24 07:00:00 20.7 4 Sur 7 Sudeste 0 -- -- 50
2020-08-24 06:00:00 21.7 3 Sur 7 Sur 0 -- -- 47
2020-08-24 05:00:00 22.4 5 Sur 10 Sur 0 -- -- 44
2020-08-24 04:00:00 22.9 6 Sur 9 Sur 0 -- -- 41
2020-08-24 03:00:00 24 4 Sur 12 Sudoeste 0 -- -- 30
2020-08-24 02:00:00 25.9 4 Sur 5 Sudoeste 0 -- -- 21
2020-08-24 01:00:00 26.8 3 Sudeste 6 Sudeste 0 -- -- 19
2020-08-24 00:00:00 28 0 Calma 4 Oeste 0 -- -- 17